sensor_id;sensor_type;location;lat;lon;timestamp;temperature;humidity
19945;DHT22;10134;50.952;6.930;2023-07-22T00:00:06;17.30;94.50
19945;DHT22;10134;50.952;6.930;2023-07-22T00:02:39;17.30;94.60
19945;DHT22;10134;50.952;6.930;2023-07-22T00:05:07;17.30;94.60
19945;DHT22;10134;50.952;6.930;2023-07-22T00:07:35;17.30;94.60
19945;DHT22;10134;50.952;6.930;2023-07-22T00:10:02;17.20;94.60
19945;DHT22;10134;50.952;6.930;2023-07-22T00:12:30;17.20;94.50
19945;DHT22;10134;50.952;6.930;2023-07-22T00:14:57;17.20;94.50
19945;DHT22;10134;50.952;6.930;2023-07-22T00:17:25;17.20;94.40
19945;DHT22;10134;50.952;6.930;2023-07-22T00:19:52;17.10;94.50
19945;DHT22;10134;50.952;6.930;2023-07-22T00:22:21;17.10;94.60
19945;DHT22;10134;50.952;6.930;2023-07-22T00:24:48;17.10;94.60
19945;DHT22;10134;50.952;6.930;2023-07-22T00:27:16;17.00;94.70
19945;DHT22;10134;50.952;6.930;2023-07-22T00:29:43;17.00;94.80
19945;DHT22;10134;50.952;6.930;2023-07-22T00:32:11;17.00;95.00
19945;DHT22;10134;50.952;6.930;2023-07-22T00:34:38;16.90;95.00
19945;DHT22;10134;50.952;6.930;2023-07-22T00:37:05;16.90;95.10
19945;DHT22;10134;50.952;6.930;2023-07-22T00:39:33;16.90;95.20
19945;DHT22;10134;50.952;6.930;2023-07-22T00:42:00;16.90;95.30
19945;DHT22;10134;50.952;6.930;2023-07-22T00:44:27;16.80;95.30
19945;DHT22;10134;50.952;6.930;2023-07-22T00:46:56;16.80;95.40
19945;DHT22;10134;50.952;6.930;2023-07-22T00:49:26;16.80;95.50
19945;DHT22;10134;50.952;6.930;2023-07-22T00:51:56;16.80;95.60
19945;DHT22;10134;50.952;6.930;2023-07-22T00:54:23;16.80;95.60
19945;DHT22;10134;50.952;6.930;2023-07-22T00:56:51;16.70;95.60
19945;DHT22;10134;50.952;6.930;2023-07-22T00:59:19;16.80;95.70
19945;DHT22;10134;50.952;6.930;2023-07-22T01:01:46;16.70;95.70
19945;DHT22;10134;50.952;6.930;2023-07-22T01:04:15;16.70;95.80
19945;DHT22;10134;50.952;6.930;2023-07-22T01:06:44;16.70;95.80
19945;DHT22;10134;50.952;6.930;2023-07-22T01:09:12;16.70;95.90
19945;DHT22;10134;50.952;6.930;2023-07-22T01:11:40;16.60;96.00
19945;DHT22;10134;50.952;6.930;2023-07-22T01:14:07;16.60;96.00
19945;DHT22;10134;50.952;6.930;2023-07-22T01:16:35;16.60;96.20
19945;DHT22;10134;50.952;6.930;2023-07-22T01:19:03;16.60;96.30
19945;DHT22;10134;50.952;6.930;2023-07-22T01:21:32;16.60;96.50
19945;DHT22;10134;50.952;6.930;2023-07-22T01:24:00;16.60;96.60
19945;DHT22;10134;50.952;6.930;2023-07-22T01:26:28;16.60;96.70
19945;DHT22;10134;50.952;6.930;2023-07-22T01:29:05;16.60;96.80
19945;DHT22;10134;50.952;6.930;2023-07-22T01:31:34;16.50;96.90
19945;DHT22;10134;50.952;6.930;2023-07-22T01:34:02;16.50;97.00
19945;DHT22;10134;50.952;6.930;2023-07-22T01:36:31;16.50;97.20
19945;DHT22;10134;50.952;6.930;2023-07-22T01:38:58;16.50;97.40
19945;DHT22;10134;50.952;6.930;2023-07-22T01:41:27;16.40;97.50
19945;DHT22;10134;50.952;6.930;2023-07-22T01:43:54;16.50;97.60
19945;DHT22;10134;50.952;6.930;2023-07-22T01:46:22;16.40;97.70
19945;DHT22;10134;50.952;6.930;2023-07-22T01:48:49;16.50;97.90
19945;DHT22;10134;50.952;6.930;2023-07-22T01:51:16;16.40;98.00
19945;DHT22;10134;50.952;6.930;2023-07-22T01:53:44;16.40;98.10
19945;DHT22;10134;50.952;6.930;2023-07-22T01:56:11;16.40;98.20
19945;DHT22;10134;50.952;6.930;2023-07-22T01:58:38;16.40;98.30
19945;DHT22;10134;50.952;6.930;2023-07-22T02:01:06;16.50;98.50
19945;DHT22;10134;50.952;6.930;2023-07-22T02:03:34;16.40;98.60
19945;DHT22;10134;50.952;6.930;2023-07-22T02:06:05;16.40;98.70
19945;DHT22;10134;50.952;6.930;2023-07-22T02:08:33;16.40;98.80
19945;DHT22;10134;50.952;6.930;2023-07-22T02:11:05;16.50;98.90
19945;DHT22;10134;50.952;6.930;2023-07-22T02:13:34;16.50;99.00
19945;DHT22;10134;50.952;6.930;2023-07-22T02:16:02;16.50;99.10
19945;DHT22;10134;50.952;6.930;2023-07-22T02:18:30;16.50;99.20
19945;DHT22;10134;50.952;6.930;2023-07-22T02:20:57;16.50;99.30
19945;DHT22;10134;50.952;6.930;2023-07-22T02:23:25;16.50;99.40
19945;DHT22;10134;50.952;6.930;2023-07-22T02:25:53;16.50;99.50
19945;DHT22;10134;50.952;6.930;2023-07-22T02:28:21;16.50;99.50
19945;DHT22;10134;50.952;6.930;2023-07-22T02:30:53;16.50;99.60
19945;DHT22;10134;50.952;6.930;2023-07-22T02:33:21;16.50;99.80
19945;DHT22;10134;50.952;6.930;2023-07-22T02:35:49;16.40;99.80
19945;DHT22;10134;50.952;6.930;2023-07-22T02:38:17;16.40;99.80
19945;DHT22;10134;50.952;6.930;2023-07-22T02:40:45;16.40;99.90
19945;DHT22;10134;50.952;6.930;2023-07-22T02:43:12;16.40;99.90
19945;DHT22;10134;50.952;6.930;2023-07-22T02:45:40;16.40;99.90
19945;DHT22;10134;50.952;6.930;2023-07-22T02:48:07;16.40;99.90
19945;DHT22;10134;50.952;6.930;2023-07-22T02:50:34;16.40;99.90
19945;DHT22;10134;50.952;6.930;2023-07-22T02:53:02;16.40;99.90
19945;DHT22;10134;50.952;6.930;2023-07-22T02:55:29;16.40;99.90
19945;DHT22;10134;50.952;6.930;2023-07-22T02:57:57;16.40;99.90
19945;DHT22;10134;50.952;6.930;2023-07-22T03:00:24;16.40;99.90
19945;DHT22;10134;50.952;6.930;2023-07-22T03:02:54;16.40;99.90
19945;DHT22;10134;50.952;6.930;2023-07-22T03:05:29;16.40;99.90
19945;DHT22;10134;50.952;6.930;2023-07-22T03:07:57;16.40;99.90
19945;DHT22;10134;50.952;6.930;2023-07-22T03:10:25;16.40;99.90
19945;DHT22;10134;50.952;6.930;2023-07-22T03:12:53;16.40;99.90
19945;DHT22;10134;50.952;6.930;2023-07-22T03:15:23;16.40;99.90
19945;DHT22;10134;50.952;6.930;2023-07-22T03:17:53;16.40;99.90
19945;DHT22;10134;50.952;6.930;2023-07-22T03:20:21;16.40;99.90
19945;DHT22;10134;50.952;6.930;2023-07-22T03:22:50;16.40;99.90
19945;DHT22;10134;50.952;6.930;2023-07-22T03:25:17;16.40;99.90
19945;DHT22;10134;50.952;6.930;2023-07-22T03:27:45;16.40;99.90
19945;DHT22;10134;50.952;6.930;2023-07-22T03:30:14;16.40;99.90
19945;DHT22;10134;50.952;6.930;2023-07-22T03:32:46;16.40;99.90
19945;DHT22;10134;50.952;6.930;2023-07-22T03:35:15;16.40;99.90
19945;DHT22;10134;50.952;6.930;2023-07-22T03:37:43;16.40;99.90
19945;DHT22;10134;50.952;6.930;2023-07-22T03:40:10;16.40;99.90
19945;DHT22;10134;50.952;6.930;2023-07-22T03:42:51;16.40;99.90
19945;DHT22;10134;50.952;6.930;2023-07-22T03:45:19;16.40;99.90
19945;DHT22;10134;50.952;6.930;2023-07-22T03:47:58;16.40;99.90
19945;DHT22;10134;50.952;6.930;2023-07-22T03:50:26;16.40;99.90
19945;DHT22;10134;50.952;6.930;2023-07-22T03:52:54;16.30;99.90
19945;DHT22;10134;50.952;6.930;2023-07-22T03:55:21;16.30;99.90
19945;DHT22;10134;50.952;6.930;2023-07-22T03:57:48;16.30;99.90
19945;DHT22;10134;50.952;6.930;2023-07-22T04:00:16;16.30;99.90
19945;DHT22;10134;50.952;6.930;2023-07-22T04:02:44;16.30;99.90
19945;DHT22;10134;50.952;6.930;2023-07-22T04:05:11;16.30;99.90
19945;DHT22;10134;50.952;6.930;2023-07-22T04:07:39;16.30;99.90
19945;DHT22;10134;50.952;6.930;2023-07-22T04:10:07;16.30;99.90
19945;DHT22;10134;50.952;6.930;2023-07-22T04:12:34;16.30;99.90
19945;DHT22;10134;50.952;6.930;2023-07-22T04:15:02;16.30;99.90
19945;DHT22;10134;50.952;6.930;2023-07-22T04:17:30;16.30;99.90
19945;DHT22;10134;50.952;6.930;2023-07-22T04:19:58;16.20;99.90
19945;DHT22;10134;50.952;6.930;2023-07-22T04:22:25;16.20;99.90
19945;DHT22;10134;50.952;6.930;2023-07-22T04:24:52;16.30;99.90
19945;DHT22;10134;50.952;6.930;2023-07-22T04:27:20;16.30;99.90
19945;DHT22;10134;50.952;6.930;2023-07-22T04:29:47;16.20;99.90
19945;DHT22;10134;50.952;6.930;2023-07-22T04:32:15;16.30;99.90
19945;DHT22;10134;50.952;6.930;2023-07-22T04:34:42;16.30;99.90
19945;DHT22;10134;50.952;6.930;2023-07-22T04:37:09;16.30;99.90
19945;DHT22;10134;50.952;6.930;2023-07-22T04:39:37;16.30;99.90
19945;DHT22;10134;50.952;6.930;2023-07-22T04:42:04;16.30;99.90
19945;DHT22;10134;50.952;6.930;2023-07-22T04:44:32;16.30;99.90
19945;DHT22;10134;50.952;6.930;2023-07-22T04:46:59;16.30;99.90
19945;DHT22;10134;50.952;6.930;2023-07-22T04:49:27;16.30;99.90
19945;DHT22;10134;50.952;6.930;2023-07-22T04:51:54;16.30;99.90
19945;DHT22;10134;50.952;6.930;2023-07-22T04:54:21;16.30;99.90
19945;DHT22;10134;50.952;6.930;2023-07-22T04:56:49;16.30;99.90
19945;DHT22;10134;50.952;6.930;2023-07-22T04:59:16;16.40;99.90
19945;DHT22;10134;50.952;6.930;2023-07-22T05:01:43;16.40;99.90
19945;DHT22;10134;50.952;6.930;2023-07-22T05:04:11;16.40;99.90
19945;DHT22;10134;50.952;6.930;2023-07-22T05:06:38;16.40;99.90
19945;DHT22;10134;50.952;6.930;2023-07-22T05:09:05;16.40;99.90
19945;DHT22;10134;50.952;6.930;2023-07-22T05:11:33;16.40;99.90
19945;DHT22;10134;50.952;6.930;2023-07-22T05:14:00;16.50;99.90
19945;DHT22;10134;50.952;6.930;2023-07-22T05:16:27;16.50;99.90
19945;DHT22;10134;50.952;6.930;2023-07-22T05:18:55;16.50;99.90
19945;DHT22;10134;50.952;6.930;2023-07-22T05:21:22;16.50;99.90
19945;DHT22;10134;50.952;6.930;2023-07-22T05:23:49;16.50;99.90
19945;DHT22;10134;50.952;6.930;2023-07-22T05:26:17;16.60;99.90
19945;DHT22;10134;50.952;6.930;2023-07-22T05:28:44;16.60;99.90
19945;DHT22;10134;50.952;6.930;2023-07-22T05:31:11;16.60;99.90
19945;DHT22;10134;50.952;6.930;2023-07-22T05:33:39;16.60;99.90
19945;DHT22;10134;50.952;6.930;2023-07-22T05:36:06;16.60;99.90
19945;DHT22;10134;50.952;6.930;2023-07-22T05:38:34;16.70;99.90
19945;DHT22;10134;50.952;6.930;2023-07-22T05:41:01;16.70;99.90
19945;DHT22;10134;50.952;6.930;2023-07-22T05:43:29;16.70;99.90
19945;DHT22;10134;50.952;6.930;2023-07-22T05:45:56;16.70;99.90
19945;DHT22;10134;50.952;6.930;2023-07-22T05:48:23;16.80;99.90
19945;DHT22;10134;50.952;6.930;2023-07-22T05:50:51;16.80;99.90
19945;DHT22;10134;50.952;6.930;2023-07-22T05:53:19;16.80;99.90
19945;DHT22;10134;50.952;6.930;2023-07-22T05:55:46;16.90;99.90
19945;DHT22;10134;50.952;6.930;2023-07-22T05:58:17;16.90;99.90
19945;DHT22;10134;50.952;6.930;2023-07-22T06:00:45;16.90;99.90
19945;DHT22;10134;50.952;6.930;2023-07-22T06:03:16;16.90;99.90
19945;DHT22;10134;50.952;6.930;2023-07-22T06:05:44;17.00;99.90
19945;DHT22;10134;50.952;6.930;2023-07-22T06:08:11;17.00;99.80
19945;DHT22;10134;50.952;6.930;2023-07-22T06:10:40;17.00;99.60
19945;DHT22;10134;50.952;6.930;2023-07-22T06:13:07;17.10;99.60
19945;DHT22;10134;50.952;6.930;2023-07-22T06:15:35;17.10;99.50
19945;DHT22;10134;50.952;6.930;2023-07-22T06:18:02;17.20;99.40
19945;DHT22;10134;50.952;6.930;2023-07-22T06:20:30;17.20;99.30
19945;DHT22;10134;50.952;6.930;2023-07-22T06:22:57;17.20;99.20
19945;DHT22;10134;50.952;6.930;2023-07-22T06:25:24;17.30;99.10
19945;DHT22;10134;50.952;6.930;2023-07-22T06:27:52;17.30;99.00
19945;DHT22;10134;50.952;6.930;2023-07-22T06:30:21;17.30;99.00
19945;DHT22;10134;50.952;6.930;2023-07-22T06:32:48;17.40;99.10
19945;DHT22;10134;50.952;6.930;2023-07-22T06:35:16;17.40;99.00
19945;DHT22;10134;50.952;6.930;2023-07-22T06:37:43;17.40;99.00
19945;DHT22;10134;50.952;6.930;2023-07-22T06:40:10;17.40;99.00
19945;DHT22;10134;50.952;6.930;2023-07-22T06:42:38;17.50;99.00
19945;DHT22;10134;50.952;6.930;2023-07-22T06:45:06;17.60;98.90
19945;DHT22;10134;50.952;6.930;2023-07-22T06:47:34;17.60;98.80
19945;DHT22;10134;50.952;6.930;2023-07-22T06:50:03;17.70;98.70
19945;DHT22;10134;50.952;6.930;2023-07-22T06:52:31;17.70;98.70
19945;DHT22;10134;50.952;6.930;2023-07-22T06:54:59;17.80;98.60
19945;DHT22;10134;50.952;6.930;2023-07-22T06:57:26;17.90;98.60
19945;DHT22;10134;50.952;6.930;2023-07-22T06:59:54;17.90;98.40
19945;DHT22;10134;50.952;6.930;2023-07-22T07:02:22;18.00;98.20
19945;DHT22;10134;50.952;6.930;2023-07-22T07:04:49;18.00;97.90
19945;DHT22;10134;50.952;6.930;2023-07-22T07:07:17;18.10;97.70
19945;DHT22;10134;50.952;6.930;2023-07-22T07:09:44;18.20;97.70
19945;DHT22;10134;50.952;6.930;2023-07-22T07:12:12;18.20;97.60
19945;DHT22;10134;50.952;6.930;2023-07-22T07:14:40;18.30;97.40
19945;DHT22;10134;50.952;6.930;2023-07-22T07:17:07;18.30;97.30
19945;DHT22;10134;50.952;6.930;2023-07-22T07:19:34;18.40;97.10
19945;DHT22;10134;50.952;6.930;2023-07-22T07:22:02;18.40;97.00
19945;DHT22;10134;50.952;6.930;2023-07-22T07:24:29;18.50;96.80
19945;DHT22;10134;50.952;6.930;2023-07-22T07:26:56;18.50;96.70
19945;DHT22;10134;50.952;6.930;2023-07-22T07:29:24;18.60;96.60
19945;DHT22;10134;50.952;6.930;2023-07-22T07:32:11;18.60;96.40
19945;DHT22;10134;50.952;6.930;2023-07-22T07:34:39;18.70;96.40
19945;DHT22;10134;50.952;6.930;2023-07-22T07:37:06;18.70;96.40
19945;DHT22;10134;50.952;6.930;2023-07-22T07:39:33;18.80;96.30
19945;DHT22;10134;50.952;6.930;2023-07-22T07:42:00;18.80;96.10
19945;DHT22;10134;50.952;6.930;2023-07-22T07:44:28;18.90;95.60
19945;DHT22;10134;50.952;6.930;2023-07-22T07:46:55;18.90;95.40
19945;DHT22;10134;50.952;6.930;2023-07-22T07:49:22;19.00;95.20
19945;DHT22;10134;50.952;6.930;2023-07-22T07:51:50;19.00;95.00
19945;DHT22;10134;50.952;6.930;2023-07-22T07:54:17;19.10;94.90
19945;DHT22;10134;50.952;6.930;2023-07-22T07:56:44;19.10;94.90
19945;DHT22;10134;50.952;6.930;2023-07-22T07:59:12;19.20;94.80
19945;DHT22;10134;50.952;6.930;2023-07-22T08:01:40;19.20;94.60
19945;DHT22;10134;50.952;6.930;2023-07-22T08:04:09;19.20;94.50
19945;DHT22;10134;50.952;6.930;2023-07-22T08:06:36;19.30;94.50
19945;DHT22;10134;50.952;6.930;2023-07-22T08:09:04;19.30;94.40
19945;DHT22;10134;50.952;6.930;2023-07-22T08:11:36;19.40;94.20
19945;DHT22;10134;50.952;6.930;2023-07-22T08:14:03;19.40;94.10
19945;DHT22;10134;50.952;6.930;2023-07-22T08:16:32;19.40;94.10
19945;DHT22;10134;50.952;6.930;2023-07-22T08:19:00;19.50;94.30
19945;DHT22;10134;50.952;6.930;2023-07-22T08:21:27;19.50;94.00
19945;DHT22;10134;50.952;6.930;2023-07-22T08:23:54;19.50;93.80
19945;DHT22;10134;50.952;6.930;2023-07-22T08:26:22;19.50;93.70
19945;DHT22;10134;50.952;6.930;2023-07-22T08:28:49;19.60;93.50
19945;DHT22;10134;50.952;6.930;2023-07-22T08:31:16;19.60;93.30
19945;DHT22;10134;50.952;6.930;2023-07-22T08:33:44;19.70;93.00
19945;DHT22;10134;50.952;6.930;2023-07-22T08:36:11;19.70;93.00
19945;DHT22;10134;50.952;6.930;2023-07-22T08:38:38;19.80;92.90
19945;DHT22;10134;50.952;6.930;2023-07-22T08:41:06;19.80;92.80
19945;DHT22;10134;50.952;6.930;2023-07-22T08:43:34;19.80;92.70
19945;DHT22;10134;50.952;6.930;2023-07-22T08:46:06;19.80;92.60
19945;DHT22;10134;50.952;6.930;2023-07-22T08:48:34;19.90;92.30
19945;DHT22;10134;50.952;6.930;2023-07-22T08:51:12;19.90;92.10
19945;DHT22;10134;50.952;6.930;2023-07-22T08:53:43;20.00;91.80
19945;DHT22;10134;50.952;6.930;2023-07-22T08:56:19;20.10;91.50
19945;DHT22;10134;50.952;6.930;2023-07-22T08:58:48;20.10;91.40
19945;DHT22;10134;50.952;6.930;2023-07-22T09:01:16;20.20;91.10
19945;DHT22;10134;50.952;6.930;2023-07-22T09:03:44;20.20;91.20
19945;DHT22;10134;50.952;6.930;2023-07-22T09:06:18;20.20;91.10
19945;DHT22;10134;50.952;6.930;2023-07-22T09:08:46;20.30;90.90
19945;DHT22;10134;50.952;6.930;2023-07-22T09:11:15;20.40;91.00
19945;DHT22;10134;50.952;6.930;2023-07-22T09:13:44;20.40;90.80
19945;DHT22;10134;50.952;6.930;2023-07-22T09:16:13;20.50;91.30
19945;DHT22;10134;50.952;6.930;2023-07-22T09:18:40;20.50;90.50
19945;DHT22;10134;50.952;6.930;2023-07-22T09:21:08;20.50;89.90
19945;DHT22;10134;50.952;6.930;2023-07-22T09:23:37;20.60;89.40
19945;DHT22;10134;50.952;6.930;2023-07-22T09:26:12;20.70;89.20
19945;DHT22;10134;50.952;6.930;2023-07-22T09:31:17;20.80;89.30
19945;DHT22;10134;50.952;6.930;2023-07-22T09:33:44;20.90;88.30
19945;DHT22;10134;50.952;6.930;2023-07-22T09:36:12;21.00;87.80
19945;DHT22;10134;50.952;6.930;2023-07-22T09:38:39;21.00;87.20
19945;DHT22;10134;50.952;6.930;2023-07-22T09:41:07;21.10;87.30
19945;DHT22;10134;50.952;6.930;2023-07-22T09:43:37;21.20;87.40
19945;DHT22;10134;50.952;6.930;2023-07-22T09:46:09;21.20;87.30
19945;DHT22;10134;50.952;6.930;2023-07-22T09:48:44;21.30;87.30
19945;DHT22;10134;50.952;6.930;2023-07-22T09:51:14;21.30;86.40
19945;DHT22;10134;50.952;6.930;2023-07-22T09:53:46;21.40;86.40
19945;DHT22;10134;50.952;6.930;2023-07-22T09:56:13;21.50;86.30
19945;DHT22;10134;50.952;6.930;2023-07-22T09:58:40;21.50;85.80
19945;DHT22;10134;50.952;6.930;2023-07-22T10:01:12;21.60;85.40
19945;DHT22;10134;50.952;6.930;2023-07-22T10:03:43;21.60;82.30
19945;DHT22;10134;50.952;6.930;2023-07-22T10:06:13;21.60;80.20
19945;DHT22;10134;50.952;6.930;2023-07-22T10:08:43;21.70;77.90
19945;DHT22;10134;50.952;6.930;2023-07-22T10:11:13;21.70;77.80
19945;DHT22;10134;50.952;6.930;2023-07-22T10:13:41;21.80;76.90
19945;DHT22;10134;50.952;6.930;2023-07-22T10:16:09;21.80;75.80
19945;DHT22;10134;50.952;6.930;2023-07-22T10:18:38;21.90;75.60
19945;DHT22;10134;50.952;6.930;2023-07-22T10:21:05;21.90;75.00
19945;DHT22;10134;50.952;6.930;2023-07-22T10:23:33;22.00;74.00
19945;DHT22;10134;50.952;6.930;2023-07-22T10:26:01;22.00;73.20
19945;DHT22;10134;50.952;6.930;2023-07-22T10:28:30;22.10;73.30
19945;DHT22;10134;50.952;6.930;2023-07-22T10:30:58;22.20;74.00
19945;DHT22;10134;50.952;6.930;2023-07-22T10:33:26;22.30;72.10
19945;DHT22;10134;50.952;6.930;2023-07-22T10:36:08;22.30;71.30
19945;DHT22;10134;50.952;6.930;2023-07-22T10:38:36;22.40;70.70
19945;DHT22;10134;50.952;6.930;2023-07-22T10:41:15;22.40;70.80
19945;DHT22;10134;50.952;6.930;2023-07-22T10:43:58;22.50;70.70
19945;DHT22;10134;50.952;6.930;2023-07-22T10:49:13;22.60;71.40
19945;DHT22;10134;50.952;6.930;2023-07-22T10:51:47;22.60;70.20
19945;DHT22;10134;50.952;6.930;2023-07-22T10:54:15;22.70;70.50
19945;DHT22;10134;50.952;6.930;2023-07-22T10:57:02;22.70;69.80
19945;DHT22;10134;50.952;6.930;2023-07-22T10:59:32;22.80;68.60
19945;DHT22;10134;50.952;6.930;2023-07-22T11:02:01;22.90;68.80
19945;DHT22;10134;50.952;6.930;2023-07-22T11:04:29;22.90;68.00
19945;DHT22;10134;50.952;6.930;2023-07-22T11:07:13;23.00;67.70
19945;DHT22;10134;50.952;6.930;2023-07-22T11:09:40;23.00;67.60
19945;DHT22;10134;50.952;6.930;2023-07-22T11:12:13;23.10;68.10
19945;DHT22;10134;50.952;6.930;2023-07-22T11:17:13;23.20;67.60
19945;DHT22;10134;50.952;6.930;2023-07-22T11:19:40;23.20;67.30
19945;DHT22;10134;50.952;6.930;2023-07-22T11:22:08;23.30;66.90
19945;DHT22;10134;50.952;6.930;2023-07-22T11:24:36;23.30;66.80
19945;DHT22;10134;50.952;6.930;2023-07-22T11:27:05;23.40;66.70
19945;DHT22;10134;50.952;6.930;2023-07-22T11:29:36;23.40;66.30
19945;DHT22;10134;50.952;6.930;2023-07-22T11:32:04;23.50;66.90
19945;DHT22;10134;50.952;6.930;2023-07-22T11:34:33;23.50;66.40
19945;DHT22;10134;50.952;6.930;2023-07-22T11:37:00;23.50;65.40
19945;DHT22;10134;50.952;6.930;2023-07-22T11:39:27;23.50;65.30
19945;DHT22;10134;50.952;6.930;2023-07-22T11:42:00;23.50;65.00
19945;DHT22;10134;50.952;6.930;2023-07-22T11:44:29;23.50;65.50
19945;DHT22;10134;50.952;6.930;2023-07-22T11:47:02;23.50;65.10
19945;DHT22;10134;50.952;6.930;2023-07-22T11:49:36;23.50;65.30
19945;DHT22;10134;50.952;6.930;2023-07-22T11:52:06;23.60;65.40
19945;DHT22;10134;50.952;6.930;2023-07-22T11:54:39;23.60;65.20
19945;DHT22;10134;50.952;6.930;2023-07-22T11:57:22;23.60;64.80
19945;DHT22;10134;50.952;6.930;2023-07-22T11:59:52;23.70;65.00
19945;DHT22;10134;50.952;6.930;2023-07-22T12:02:24;23.70;64.90
19945;DHT22;10134;50.952;6.930;2023-07-22T12:05:01;23.70;64.90
19945;DHT22;10134;50.952;6.930;2023-07-22T12:07:36;23.80;65.10
19945;DHT22;10134;50.952;6.930;2023-07-22T12:10:05;23.80;65.00
19945;DHT22;10134;50.952;6.930;2023-07-22T12:12:44;23.80;65.00
19945;DHT22;10134;50.952;6.930;2023-07-22T12:15:18;23.80;64.80
19945;DHT22;10134;50.952;6.930;2023-07-22T12:17:53;23.80;65.00
19945;DHT22;10134;50.952;6.930;2023-07-22T12:20:26;23.90;64.30
19945;DHT22;10134;50.952;6.930;2023-07-22T12:22:55;23.90;63.80
19945;DHT22;10134;50.952;6.930;2023-07-22T12:25:23;23.90;63.30
19945;DHT22;10134;50.952;6.930;2023-07-22T12:27:51;23.90;62.90
19945;DHT22;10134;50.952;6.930;2023-07-22T12:30:18;23.90;63.40
19945;DHT22;10134;50.952;6.930;2023-07-22T12:32:47;24.00;63.80
19945;DHT22;10134;50.952;6.930;2023-07-22T12:35:15;24.10;63.30
19945;DHT22;10134;50.952;6.930;2023-07-22T12:37:43;24.10;63.60
19945;DHT22;10134;50.952;6.930;2023-07-22T12:40:10;24.20;62.40
19945;DHT22;10134;50.952;6.930;2023-07-22T12:42:39;24.20;61.70
19945;DHT22;10134;50.952;6.930;2023-07-22T12:45:08;24.30;61.60
19945;DHT22;10134;50.952;6.930;2023-07-22T12:47:35;24.40;61.30
19945;DHT22;10134;50.952;6.930;2023-07-22T12:50:08;24.40;61.40
19945;DHT22;10134;50.952;6.930;2023-07-22T12:52:37;24.40;60.60
19945;DHT22;10134;50.952;6.930;2023-07-22T12:55:05;24.50;60.70
19945;DHT22;10134;50.952;6.930;2023-07-22T12:57:33;24.50;60.90
19945;DHT22;10134;50.952;6.930;2023-07-22T13:00:00;24.60;59.80
19945;DHT22;10134;50.952;6.930;2023-07-22T13:02:27;24.60;60.00
19945;DHT22;10134;50.952;6.930;2023-07-22T13:04:55;24.60;59.80
19945;DHT22;10134;50.952;6.930;2023-07-22T13:07:22;24.70;59.30
19945;DHT22;10134;50.952;6.930;2023-07-22T13:09:52;24.70;58.80
19945;DHT22;10134;50.952;6.930;2023-07-22T13:12:34;24.80;58.60
19945;DHT22;10134;50.952;6.930;2023-07-22T13:15:01;24.90;59.20
19945;DHT22;10134;50.952;6.930;2023-07-22T13:17:28;24.90;59.00
19945;DHT22;10134;50.952;6.930;2023-07-22T13:19:56;25.00;58.60
19945;DHT22;10134;50.952;6.930;2023-07-22T13:22:23;25.00;58.60
19945;DHT22;10134;50.952;6.930;2023-07-22T13:24:50;25.10;58.60
19945;DHT22;10134;50.952;6.930;2023-07-22T13:27:18;25.10;58.30
19945;DHT22;10134;50.952;6.930;2023-07-22T13:29:46;25.20;58.40
19945;DHT22;10134;50.952;6.930;2023-07-22T13:32:13;25.20;58.40
19945;DHT22;10134;50.952;6.930;2023-07-22T13:34:40;25.30;58.30
19945;DHT22;10134;50.952;6.930;2023-07-22T13:37:07;25.30;58.60
19945;DHT22;10134;50.952;6.930;2023-07-22T13:39:35;25.50;58.90
19945;DHT22;10134;50.952;6.930;2023-07-22T13:42:02;25.50;58.60
19945;DHT22;10134;50.952;6.930;2023-07-22T13:44:29;25.60;58.80
19945;DHT22;10134;50.952;6.930;2023-07-22T13:46:57;25.70;58.50
19945;DHT22;10134;50.952;6.930;2023-07-22T13:49:24;25.80;58.20
19945;DHT22;10134;50.952;6.930;2023-07-22T13:51:52;25.90;57.50
19945;DHT22;10134;50.952;6.930;2023-07-22T13:54:19;26.00;57.30
19945;DHT22;10134;50.952;6.930;2023-07-22T13:56:47;26.10;56.90
19945;DHT22;10134;50.952;6.930;2023-07-22T13:59:14;26.10;56.80
19945;DHT22;10134;50.952;6.930;2023-07-22T14:01:42;26.20;56.80
19945;DHT22;10134;50.952;6.930;2023-07-22T14:04:10;26.20;56.60
19945;DHT22;10134;50.952;6.930;2023-07-22T14:06:38;26.30;57.40
19945;DHT22;10134;50.952;6.930;2023-07-22T14:09:05;26.30;56.90
19945;DHT22;10134;50.952;6.930;2023-07-22T14:11:33;26.40;57.20
19945;DHT22;10134;50.952;6.930;2023-07-22T14:14:00;26.40;57.10
19945;DHT22;10134;50.952;6.930;2023-07-22T14:16:27;26.50;56.90
19945;DHT22;10134;50.952;6.930;2023-07-22T14:18:55;26.60;56.80
19945;DHT22;10134;50.952;6.930;2023-07-22T14:21:22;26.70;56.80
19945;DHT22;10134;50.952;6.930;2023-07-22T14:23:50;26.80;56.40
19945;DHT22;10134;50.952;6.930;2023-07-22T14:26:17;26.90;56.20
19945;DHT22;10134;50.952;6.930;2023-07-22T14:28:45;27.00;55.70
19945;DHT22;10134;50.952;6.930;2023-07-22T14:31:13;27.10;55.90
19945;DHT22;10134;50.952;6.930;2023-07-22T14:33:40;27.20;56.00
19945;DHT22;10134;50.952;6.930;2023-07-22T14:36:07;27.20;55.60
19945;DHT22;10134;50.952;6.930;2023-07-22T14:38:35;27.40;55.90
19945;DHT22;10134;50.952;6.930;2023-07-22T14:41:02;27.50;56.20
19945;DHT22;10134;50.952;6.930;2023-07-22T14:43:30;27.60;55.90
19945;DHT22;10134;50.952;6.930;2023-07-22T14:45:57;27.80;56.10
19945;DHT22;10134;50.952;6.930;2023-07-22T14:48:25;27.90;55.40
19945;DHT22;10134;50.952;6.930;2023-07-22T14:50:52;28.00;55.00
19945;DHT22;10134;50.952;6.930;2023-07-22T14:53:19;28.20;55.10
19945;DHT22;10134;50.952;6.930;2023-07-22T14:55:47;28.30;54.70
19945;DHT22;10134;50.952;6.930;2023-07-22T14:58:15;28.40;54.10
19945;DHT22;10134;50.952;6.930;2023-07-22T15:00:43;28.50;53.10
19945;DHT22;10134;50.952;6.930;2023-07-22T15:03:10;28.50;52.30
19945;DHT22;10134;50.952;6.930;2023-07-22T15:05:38;28.50;52.60
19945;DHT22;10134;50.952;6.930;2023-07-22T15:08:05;28.50;52.80
19945;DHT22;10134;50.952;6.930;2023-07-22T15:10:32;28.60;53.30
19945;DHT22;10134;50.952;6.930;2023-07-22T15:12:59;28.60;53.20
19945;DHT22;10134;50.952;6.930;2023-07-22T15:15:27;28.80;53.00
19945;DHT22;10134;50.952;6.930;2023-07-22T15:17:54;28.90;52.80
19945;DHT22;10134;50.952;6.930;2023-07-22T15:20:22;29.10;52.80
19945;DHT22;10134;50.952;6.930;2023-07-22T15:22:49;29.30;52.50
19945;DHT22;10134;50.952;6.930;2023-07-22T15:25:16;29.30;52.30
19945;DHT22;10134;50.952;6.930;2023-07-22T15:27:44;29.40;52.40
19945;DHT22;10134;50.952;6.930;2023-07-22T15:30:11;29.50;52.10
19945;DHT22;10134;50.952;6.930;2023-07-22T15:32:38;29.50;51.80
19945;DHT22;10134;50.952;6.930;2023-07-22T15:35:06;29.60;51.60
19945;DHT22;10134;50.952;6.930;2023-07-22T15:37:34;29.50;51.70
19945;DHT22;10134;50.952;6.930;2023-07-22T15:40:01;29.50;51.90
19945;DHT22;10134;50.952;6.930;2023-07-22T15:42:29;29.50;52.10
19945;DHT22;10134;50.952;6.930;2023-07-22T15:44:56;29.50;52.20